createdAt,value
2018-08-31T00:01:56.361Z,16.60
2018-08-31T00:06:43.290Z,16.60
2018-08-31T00:09:24.482Z,16.60
2018-08-31T00:13:06.489Z,16.60
2018-08-31T00:15:36.209Z,16.60
2018-08-31T00:18:06.778Z,16.50
2018-08-31T00:20:37.389Z,16.50
2018-08-31T00:23:08.983Z,16.50
2018-08-31T00:26:17.535Z,16.50
2018-08-31T00:29:45.319Z,16.50
2018-08-31T00:32:25.853Z,16.40
2018-08-31T00:37:08.841Z,16.50
2018-08-31T00:39:56.153Z,16.50
2018-08-31T00:42:39.660Z,16.40
2018-08-31T00:45:19.272Z,16.30
2018-08-31T00:47:48.946Z,16.20
2018-08-31T00:50:18.511Z,16.30
2018-08-31T00:52:48.337Z,16.30
2018-08-31T00:55:18.503Z,16.30
2018-08-31T00:57:52.391Z,16.10
2018-08-31T01:00:23.154Z,16.20
2018-08-31T01:02:52.814Z,16.30
2018-08-31T01:05:22.585Z,16.30
2018-08-31T01:07:52.733Z,16.20
2018-08-31T01:10:24.567Z,16.10
2018-08-31T01:12:55.855Z,16.20
2018-08-31T01:15:27.789Z,16.30
2018-08-31T01:17:57.572Z,16.30
2018-08-31T01:20:27.380Z,16.30
2018-08-31T01:22:56.992Z,16.30
2018-08-31T01:25:27.085Z,16.30
2018-08-31T01:27:56.842Z,16.10
2018-08-31T01:30:26.880Z,16.00
2018-08-31T01:32:57.927Z,16.10
2018-08-31T01:35:27.883Z,16.10
2018-08-31T01:37:57.964Z,16.10
2018-08-31T01:40:27.788Z,16.10
2018-08-31T01:42:57.526Z,16.10
2018-08-31T01:45:27.590Z,16.10
2018-08-31T01:47:57.235Z,16.20
2018-08-31T01:50:27.210Z,16.30
2018-08-31T01:52:56.815Z,16.30
2018-08-31T01:55:31.585Z,16.20
2018-08-31T01:58:02.877Z,16.20
2018-08-31T02:00:33.888Z,16.20
2018-08-31T02:03:03.554Z,16.20
2018-08-31T02:05:34.261Z,16.10
2018-08-31T02:08:03.882Z,16.10
2018-08-31T02:10:34.675Z,16.10
2018-08-31T02:13:04.485Z,16.00
2018-08-31T02:15:34.090Z,16.00
2018-08-31T02:18:03.808Z,15.90
2018-08-31T02:20:37.028Z,15.90
2018-08-31T02:23:07.442Z,15.90
2018-08-31T02:25:38.115Z,16.00
2018-08-31T02:28:08.225Z,16.00
2018-08-31T02:30:39.133Z,16.10
2018-08-31T02:33:11.501Z,16.00
2018-08-31T02:35:41.324Z,16.00
2018-08-31T02:38:12.056Z,16.00
2018-08-31T02:40:41.714Z,15.90
2018-08-31T02:43:12.288Z,15.90
2018-08-31T02:45:42.322Z,15.90
2018-08-31T02:48:17.563Z,16.00
2018-08-31T02:50:49.161Z,16.00
2018-08-31T02:53:23.826Z,16.00
2018-08-31T02:55:53.374Z,16.00
2018-08-31T02:58:23.480Z,15.90
2018-08-31T03:00:53.108Z,15.90
2018-08-31T03:03:22.964Z,15.90
2018-08-31T03:05:54.684Z,15.90
2018-08-31T03:08:24.439Z,15.90
2018-08-31T03:10:54.435Z,15.90
2018-08-31T03:13:23.947Z,15.90
2018-08-31T03:15:53.783Z,15.80
2018-08-31T03:18:23.636Z,15.60
2018-08-31T03:20:54.302Z,15.50
2018-08-31T03:23:23.942Z,15.50
2018-08-31T03:25:53.872Z,15.50
2018-08-31T03:28:25.410Z,15.50
2018-08-31T03:30:56.699Z,15.50
2018-08-31T03:33:27.776Z,15.50
2018-08-31T03:35:58.447Z,15.50
2018-08-31T03:38:28.112Z,15.50
2018-08-31T03:40:57.788Z,15.50
2018-08-31T03:43:27.300Z,15.60
2018-08-31T03:45:57.228Z,15.60
2018-08-31T03:48:27.922Z,15.60
2018-08-31T03:50:59.787Z,15.60
2018-08-31T03:53:29.451Z,15.60
2018-08-31T03:56:00.302Z,15.60
2018-08-31T03:58:30.017Z,15.60
2018-08-31T04:01:00.765Z,15.60
2018-08-31T04:03:31.156Z,15.60
2018-08-31T04:06:00.624Z,15.50
2018-08-31T04:08:30.146Z,15.40
2018-08-31T04:11:00.532Z,15.30
2018-08-31T04:13:30.092Z,15.30
2018-08-31T04:15:59.697Z,15.30
2018-08-31T04:18:29.259Z,15.30
2018-08-31T04:20:59.847Z,15.30
2018-08-31T04:23:30.654Z,15.30
2018-08-31T04:26:02.089Z,15.20
2018-08-31T04:28:31.622Z,15.20
2018-08-31T04:31:01.243Z,15.10
2018-08-31T04:33:35.049Z,15.00
2018-08-31T04:36:07.759Z,14.90
2018-08-31T04:38:37.701Z,14.90
2018-08-31T04:41:09.508Z,14.90
2018-08-31T04:43:41.178Z,14.80
2018-08-31T04:46:10.733Z,14.80
2018-08-31T04:48:46.364Z,14.70
2018-08-31T04:51:16.503Z,14.80
2018-08-31T04:53:50.525Z,14.70
2018-08-31T04:56:21.036Z,14.70
2018-08-31T04:58:50.784Z,14.60
2018-08-31T05:01:20.624Z,14.60
2018-08-31T05:03:51.332Z,14.60
2018-08-31T05:06:21.876Z,14.60
2018-08-31T05:08:51.506Z,14.50
2018-08-31T05:11:25.385Z,14.50
2018-08-31T05:13:57.092Z,14.50
2018-08-31T05:16:27.288Z,14.50
2018-08-31T05:19:01.027Z,14.50
2018-08-31T05:21:30.764Z,14.50
2018-08-31T05:24:00.530Z,14.50
2018-08-31T05:26:31.140Z,14.40
2018-08-31T05:29:01.848Z,14.40
2018-08-31T05:31:32.387Z,14.40
2018-08-31T05:34:03.069Z,14.50
2018-08-31T05:36:32.763Z,14.50
2018-08-31T05:39:02.577Z,14.50
2018-08-31T05:41:32.216Z,14.50
2018-08-31T05:44:02.743Z,14.60
2018-08-31T05:46:32.316Z,14.50
2018-08-31T05:49:01.900Z,14.50
2018-08-31T05:51:32.430Z,14.40
2018-08-31T05:54:02.163Z,14.50
2018-08-31T05:56:31.797Z,14.50
2018-08-31T05:59:02.653Z,14.60
2018-08-31T06:01:34.511Z,14.60
2018-08-31T06:04:04.164Z,14.60
2018-08-31T06:06:33.814Z,14.60
2018-08-31T06:09:06.566Z,14.70
2018-08-31T06:11:36.227Z,14.70
2018-08-31T06:14:06.035Z,14.80
2018-08-31T06:16:35.992Z,14.80
2018-08-31T06:19:06.614Z,14.70
2018-08-31T06:21:41.534Z,14.70
2018-08-31T06:24:11.605Z,14.70
2018-08-31T06:26:41.624Z,14.80
2018-08-31T06:29:11.528Z,14.80
2018-08-31T06:31:41.610Z,14.80
2018-08-31T06:34:11.428Z,14.70
2018-08-31T06:36:41.478Z,14.70
2018-08-31T06:39:13.629Z,14.60
2018-08-31T06:41:47.636Z,14.60
2018-08-31T06:44:17.820Z,14.60
2018-08-31T06:46:48.252Z,14.50
2018-08-31T06:49:17.905Z,14.60
2018-08-31T06:51:49.346Z,14.60
2018-08-31T06:54:19.776Z,14.70
2018-08-31T06:56:49.872Z,14.70
2018-08-31T06:59:20.731Z,14.70
2018-08-31T07:01:50.377Z,14.80
2018-08-31T07:04:20.424Z,14.80
2018-08-31T07:06:50.219Z,14.80
2018-08-31T07:09:20.186Z,14.90
2018-08-31T07:11:50.358Z,14.90
2018-08-31T07:14:20.424Z,15.00
2018-08-31T07:16:50.148Z,15.10
2018-08-31T07:19:20.220Z,15.10
2018-08-31T07:21:50.909Z,15.20
2018-08-31T07:24:20.584Z,15.30
2018-08-31T07:26:51.337Z,15.40
2018-08-31T07:29:23.551Z,15.40
2018-08-31T07:31:54.328Z,15.40
2018-08-31T07:34:23.992Z,15.40
2018-08-31T07:36:55.604Z,15.40
2018-08-31T07:39:31.099Z,15.40
2018-08-31T07:42:13.212Z,15.40
2018-08-31T07:44:51.873Z,15.40
2018-08-31T07:47:26.668Z,15.40
2018-08-31T07:50:13.478Z,15.50
2018-08-31T07:52:45.357Z,15.50
2018-08-31T07:55:27.399Z,15.60
2018-08-31T07:58:06.034Z,15.60
2018-08-31T08:00:37.036Z,15.60
2018-08-31T08:03:23.360Z,15.60
2018-08-31T08:05:58.556Z,15.60
2018-08-31T08:08:35.065Z,15.70
2018-08-31T08:11:11.885Z,15.70
2018-08-31T08:13:55.466Z,15.80
2018-08-31T08:16:29.439Z,15.80
2018-08-31T08:19:00.039Z,16.00
2018-08-31T08:21:39.721Z,16.20
2018-08-31T08:24:24.078Z,16.20
2018-08-31T08:27:02.234Z,16.20
2018-08-31T08:29:33.064Z,16.30
2018-08-31T08:32:20.265Z,16.50
2018-08-31T08:35:00.537Z,16.50
2018-08-31T08:37:46.287Z,16.50
2018-08-31T08:40:36.543Z,16.60
2018-08-31T08:46:19.028Z,16.60
2018-08-31T08:48:50.766Z,16.60
2018-08-31T08:51:28.883Z,16.60
2018-08-31T08:54:08.981Z,16.70
2018-08-31T08:56:42.587Z,16.70
2018-08-31T08:59:31.022Z,16.60
2018-08-31T09:02:07.589Z,16.70
2018-08-31T09:04:49.210Z,16.80
2018-08-31T09:07:29.674Z,16.90
2018-08-31T09:10:02.767Z,17.00
2018-08-31T09:12:33.127Z,17.00
2018-08-31T09:15:05.361Z,17.00
2018-08-31T09:17:35.776Z,16.90
2018-08-31T09:20:07.731Z,16.80
2018-08-31T09:22:38.910Z,16.60
2018-08-31T09:25:10.974Z,16.50
2018-08-31T09:27:41.220Z,16.40
2018-08-31T09:30:16.982Z,16.20
2018-08-31T09:32:47.942Z,16.20
2018-08-31T09:35:18.017Z,16.20
2018-08-31T09:37:48.564Z,16.10
2018-08-31T09:40:19.689Z,16.10
2018-08-31T09:42:49.959Z,16.10
2018-08-31T09:45:24.099Z,16.00
2018-08-31T09:47:55.304Z,16.00
2018-08-31T09:50:26.047Z,16.00
2018-08-31T09:52:55.803Z,15.90
2018-08-31T09:55:27.090Z,15.90
2018-08-31T09:57:57.321Z,15.90
2018-08-31T10:00:32.158Z,15.90
2018-08-31T10:03:11.301Z,15.80
2018-08-31T10:05:41.555Z,15.80
2018-08-31T10:08:13.971Z,15.80
2018-08-31T10:11:09.972Z,15.80
2018-08-31T10:16:36.728Z,15.80
2018-08-31T10:22:05.023Z,15.70
2018-08-31T10:24:42.187Z,15.70
2018-08-31T10:30:21.548Z,15.70
2018-08-31T10:33:08.572Z,15.70
2018-08-31T10:41:43.730Z,15.90
2018-08-31T10:44:21.532Z,15.80
2018-08-31T10:47:00.825Z,15.90
2018-08-31T10:49:32.506Z,15.90
2018-08-31T10:52:06.295Z,15.90
2018-08-31T10:54:47.714Z,16.00
2018-08-31T10:57:21.099Z,16.00
2018-08-31T10:59:52.118Z,16.00
2018-08-31T11:05:26.281Z,16.10
2018-08-31T11:08:00.396Z,16.10
2018-08-31T11:13:33.456Z,16.20
2018-08-31T11:16:19.164Z,16.20
2018-08-31T11:18:50.238Z,16.30
2018-08-31T11:21:20.859Z,16.30
2018-08-31T11:23:51.612Z,16.30
2018-08-31T11:26:27.362Z,16.20
2018-08-31T11:28:57.821Z,16.20
2018-08-31T11:31:34.346Z,16.20
2018-08-31T11:34:05.421Z,16.10
2018-08-31T11:36:36.632Z,15.80
2018-08-31T11:39:13.304Z,15.70
2018-08-31T11:41:44.860Z,15.50
2018-08-31T11:44:30.143Z,15.40
2018-08-31T11:47:00.425Z,15.30
2018-08-31T11:49:30.403Z,15.10
2018-08-31T11:52:10.384Z,15.10
2018-08-31T11:54:46.166Z,15.10
2018-08-31T11:57:19.336Z,15.00
2018-08-31T12:06:03.640Z,14.90
2018-08-31T12:08:44.696Z,15.00
2018-08-31T12:14:13.224Z,15.10
2018-08-31T12:17:00.186Z,15.20
2018-08-31T12:19:39.661Z,15.10
2018-08-31T12:28:03.779Z,15.10
2018-08-31T12:30:45.184Z,15.10
2018-08-31T12:42:06.573Z,15.30
2018-08-31T12:44:38.903Z,15.40
2018-08-31T12:47:13.439Z,15.40
2018-08-31T12:49:57.978Z,15.40
2018-08-31T13:01:26.284Z,15.60
2018-08-31T13:04:00.683Z,15.60
2018-08-31T13:09:34.908Z,15.60
2018-08-31T13:12:24.724Z,15.60
2018-08-31T13:17:52.244Z,15.80
2018-08-31T13:20:32.175Z,15.90
2018-08-31T13:23:21.334Z,15.90
2018-08-31T13:35:08.055Z,16.20
2018-08-31T13:40:40.437Z,16.30
2018-08-31T13:46:09.321Z,16.30
2018-08-31T13:48:55.361Z,16.30
2018-08-31T13:57:22.888Z,16.30
2018-08-31T14:00:12.925Z,16.30
2018-08-31T14:02:44.253Z,16.30
2018-08-31T14:05:25.112Z,16.10
2018-08-31T14:08:05.979Z,16.20
2018-08-31T14:31:10.991Z,16.20
2018-08-31T14:43:33.759Z,16.10
2018-08-31T14:46:06.115Z,16.10
2018-08-31T14:48:36.466Z,16.20
2018-08-31T14:51:07.612Z,16.30
2018-08-31T14:53:51.555Z,16.30
2018-08-31T14:56:23.664Z,16.40
2018-08-31T15:02:05.040Z,16.50
2018-08-31T15:04:45.968Z,16.50
2018-08-31T15:19:18.278Z,16.40
2018-08-31T15:24:45.074Z,16.30
2018-08-31T15:27:25.117Z,16.30
2018-08-31T15:30:08.474Z,16.30
2018-08-31T15:36:08.282Z,16.30
2018-08-31T15:50:47.718Z,16.40
2018-08-31T15:53:28.008Z,16.40
2018-08-31T16:25:27.028Z,16.00
2018-08-31T17:01:55.568Z,15.20
2018-08-31T17:22:06.528Z,14.50
2018-08-31T17:45:10.544Z,14.30
2018-08-31T18:06:13.790Z,14.30
2018-08-31T18:08:54.045Z,14.30
2018-08-31T18:11:38.566Z,14.30
2018-08-31T19:34:00.805Z,13.90
2018-08-31T19:55:18.415Z,13.90
2018-08-31T19:57:50.225Z,13.90
2018-08-31T20:00:21.189Z,14.00
2018-08-31T20:03:04.952Z,14.10
2018-08-31T20:54:58.563Z,13.70
2018-08-31T20:57:53.855Z,13.70
2018-08-31T21:17:55.361Z,13.50
2018-08-31T21:20:43.263Z,13.60
2018-08-31T21:23:14.997Z,13.60
2018-08-31T21:25:54.012Z,13.60
2018-08-31T21:35:33.749Z,13.60
2018-08-31T21:38:44.978Z,13.70
2018-08-31T21:52:15.816Z,13.90
2018-08-31T22:01:33.447Z,13.70
2018-08-31T22:07:50.891Z,13.70
2018-08-31T22:10:24.030Z,13.60
2018-08-31T22:13:02.728Z,13.70
2018-08-31T22:15:33.899Z,13.60
2018-08-31T22:27:45.510Z,13.60
2018-08-31T22:30:34.336Z,13.50
2018-08-31T22:43:07.322Z,13.50
2018-08-31T22:45:39.189Z,13.50
2018-08-31T22:48:11.751Z,13.50
2018-08-31T22:51:17.268Z,13.50
2018-08-31T22:53:48.880Z,13.60
2018-08-31T23:13:01.002Z,13.50
2018-08-31T23:39:51.768Z,13.70
